sensor_id;sensor_type;location;lat;lon;timestamp;pressure;altitude;pressure_sealevel;temperature;humidity
66627;BME280;53498;50.422;14.912;2024-01-30T00:01:19;-24040.19;;;1.05;100.00
66627;BME280;53498;50.422;14.912;2024-01-30T00:03:48;-24041.28;;;1.09;100.00
66627;BME280;53498;50.422;14.912;2024-01-30T00:06:18;-24038.63;;;1.00;100.00
66627;BME280;53498;50.422;14.912;2024-01-30T00:08:44;-24039.41;;;1.03;100.00
66627;BME280;53498;50.422;14.912;2024-01-30T00:11:11;-24037.25;;;0.96;100.00
66627;BME280;53498;50.422;14.912;2024-01-30T00:13:37;-24039.56;;;1.03;100.00
66627;BME280;53498;50.422;14.912;2024-01-30T00:16:03;-24038.81;;;1.01;100.00
66627;BME280;53498;50.422;14.912;2024-01-30T00:18:29;-24038.34;;;0.99;100.00
66627;BME280;53498;50.422;14.912;2024-01-30T00:20:55;-24035.84;;;0.91;100.00
66627;BME280;53498;50.422;14.912;2024-01-30T00:23:20;-24036.31;;;0.92;100.00
66627;BME280;53498;50.422;14.912;2024-01-30T00:25:46;-24032.13;;;0.79;100.00
66627;BME280;53498;50.422;14.912;2024-01-30T00:28:11;-24032.59;;;0.80;100.00
66627;BME280;53498;50.422;14.912;2024-01-30T00:30:37;-24033.97;;;0.85;100.00
66627;BME280;53498;50.422;14.912;2024-01-30T00:33:03;-24031.34;;;0.76;100.00
66627;BME280;53498;50.422;14.912;2024-01-30T00:35:28;-24031.66;;;0.77;100.00
66627;BME280;53498;50.422;14.912;2024-01-30T00:37:55;-24032.75;;;0.81;100.00
66627;BME280;53498;50.422;14.912;2024-01-30T00:40:20;-24031.81;;;0.78;100.00
66627;BME280;53498;50.422;14.912;2024-01-30T00:42:46;-24037.09;;;0.95;100.00
66627;BME280;53498;50.422;14.912;2024-01-30T00:45:15;-24035.38;;;0.89;100.00
66627;BME280;53498;50.422;14.912;2024-01-30T00:47:42;-24033.34;;;0.83;100.00
66627;BME280;53498;50.422;14.912;2024-01-30T00:50:08;-24031.66;;;0.77;100.00
66627;BME280;53498;50.422;14.912;2024-01-30T00:52:33;-24029.63;;;0.71;100.00
66627;BME280;53498;50.422;14.912;2024-01-30T00:55:00;-24029.00;;;0.68;100.00
66627;BME280;53498;50.422;14.912;2024-01-30T00:57:26;-24027.00;;;0.62;100.00
66627;BME280;53498;50.422;14.912;2024-01-30T00:59:52;-24028.06;;;0.65;100.00
66627;BME280;53498;50.422;14.912;2024-01-30T01:02:18;-24031.97;;;0.78;100.00
66627;BME280;53498;50.422;14.912;2024-01-30T01:04:44;-24025.91;;;0.58;100.00
66627;BME280;53498;50.422;14.912;2024-01-30T01:07:11;-24027.00;;;0.62;100.00
66627;BME280;53498;50.422;14.912;2024-01-30T01:09:36;-24024.81;;;0.55;100.00
66627;BME280;53498;50.422;14.912;2024-01-30T01:12:03;-24025.75;;;0.58;100.00
66627;BME280;53498;50.422;14.912;2024-01-30T01:14:28;-24028.38;;;0.66;100.00
66627;BME280;53498;50.422;14.912;2024-01-30T01:16:54;-24027.13;;;0.62;100.00
66627;BME280;53498;50.422;14.912;2024-01-30T01:19:19;-24024.34;;;0.53;100.00
66627;BME280;53498;50.422;14.912;2024-01-30T01:21:45;-24026.22;;;0.59;100.00
66627;BME280;53498;50.422;14.912;2024-01-30T01:24:10;-24026.53;;;0.60;100.00
66627;BME280;53498;50.422;14.912;2024-01-30T01:26:36;-24026.53;;;0.60;100.00
66627;BME280;53498;50.422;14.912;2024-01-30T01:29:02;-24029.94;;;0.72;100.00
66627;BME280;53498;50.422;14.912;2024-01-30T01:31:38;-24030.41;;;0.73;100.00
66627;BME280;53498;50.422;14.912;2024-01-30T01:34:11;-24027.91;;;0.65;100.00
66627;BME280;53498;50.422;14.912;2024-01-30T01:36:38;-24028.38;;;0.66;100.00
66627;BME280;53498;50.422;14.912;2024-01-30T01:39:03;-24025.91;;;0.58;100.00
66627;BME280;53498;50.422;14.912;2024-01-30T01:41:32;-24026.53;;;0.60;100.00
66627;BME280;53498;50.422;14.912;2024-01-30T01:43:59;-24027.13;;;0.62;100.00
66627;BME280;53498;50.422;14.912;2024-01-30T01:46:26;-24028.69;;;0.67;100.00
66627;BME280;53498;50.422;14.912;2024-01-30T01:48:53;-24026.84;;;0.61;100.00
66627;BME280;53498;50.422;14.912;2024-01-30T01:51:19;-24028.38;;;0.66;100.00
66627;BME280;53498;50.422;14.912;2024-01-30T01:53:45;-24027.13;;;0.62;100.00
66627;BME280;53498;50.422;14.912;2024-01-30T01:56:11;-24025.13;;;0.56;100.00
66627;BME280;53498;50.422;14.912;2024-01-30T01:58:37;-24023.88;;;0.52;100.00
66627;BME280;53498;50.422;14.912;2024-01-30T02:01:04;-24022.47;;;0.47;100.00
66627;BME280;53498;50.422;14.912;2024-01-30T02:03:30;-24023.72;;;0.51;100.00
66627;BME280;53498;50.422;14.912;2024-01-30T02:05:56;-24023.25;;;0.50;100.00
66627;BME280;53498;50.422;14.912;2024-01-30T02:08:23;-24024.19;;;0.53;100.00
66627;BME280;53498;50.422;14.912;2024-01-30T02:10:49;-24024.19;;;0.53;100.00
66627;BME280;53498;50.422;14.912;2024-01-30T02:13:15;-24025.59;;;0.57;100.00
66627;BME280;53498;50.422;14.912;2024-01-30T02:15:41;-24022.78;;;0.48;100.00
66627;BME280;53498;50.422;14.912;2024-01-30T02:18:06;-24027.00;;;0.62;100.00
66627;BME280;53498;50.422;14.912;2024-01-30T02:20:34;-24026.06;;;0.59;100.00
66627;BME280;53498;50.422;14.912;2024-01-30T02:23:00;-24025.59;;;0.57;100.00
66627;BME280;53498;50.422;14.912;2024-01-30T02:25:31;-24024.66;;;0.54;100.00
66627;BME280;53498;50.422;14.912;2024-01-30T02:27:57;-24021.84;;;0.45;100.00
66627;BME280;53498;50.422;14.912;2024-01-30T02:30:23;-24024.34;;;0.53;100.00
66627;BME280;53498;50.422;14.912;2024-01-30T02:32:48;-24024.03;;;0.52;100.00
66627;BME280;53498;50.422;14.912;2024-01-30T02:35:14;-24025.13;;;0.56;100.00
66627;BME280;53498;50.422;14.912;2024-01-30T02:37:39;-24023.25;;;0.50;100.00
66627;BME280;53498;50.422;14.912;2024-01-30T02:40:06;-24024.66;;;0.54;100.00
66627;BME280;53498;50.422;14.912;2024-01-30T02:42:31;-24022.31;;;0.46;100.00
66627;BME280;53498;50.422;14.912;2024-01-30T02:44:57;-24024.34;;;0.53;100.00
66627;BME280;53498;50.422;14.912;2024-01-30T02:47:22;-24026.06;;;0.59;100.00
66627;BME280;53498;50.422;14.912;2024-01-30T02:49:48;-24023.41;;;0.50;100.00
66627;BME280;53498;50.422;14.912;2024-01-30T02:52:13;-24025.91;;;0.58;100.00
66627;BME280;53498;50.422;14.912;2024-01-30T02:54:39;-24026.53;;;0.60;100.00
66627;BME280;53498;50.422;14.912;2024-01-30T02:57:05;-24023.56;;;0.51;100.00
66627;BME280;53498;50.422;14.912;2024-01-30T02:59:30;-24024.50;;;0.54;100.00
66627;BME280;53498;50.422;14.912;2024-01-30T03:01:58;-24026.84;;;0.61;100.00
66627;BME280;53498;50.422;14.912;2024-01-30T03:04:24;-24026.84;;;0.61;100.00
66627;BME280;53498;50.422;14.912;2024-01-30T03:06:50;-24026.69;;;0.61;100.00
66627;BME280;53498;50.422;14.912;2024-01-30T03:09:18;-24022.94;;;0.49;100.00
66627;BME280;53498;50.422;14.912;2024-01-30T03:11:44;-24022.78;;;0.48;100.00
66627;BME280;53498;50.422;14.912;2024-01-30T03:14:10;-24022.00;;;0.45;100.00
66627;BME280;53498;50.422;14.912;2024-01-30T03:16:38;-24024.03;;;0.52;100.00
66627;BME280;53498;50.422;14.912;2024-01-30T03:19:06;-24026.69;;;0.61;100.00
66627;BME280;53498;50.422;14.912;2024-01-30T03:21:33;-24027.75;;;0.64;100.00
66627;BME280;53498;50.422;14.912;2024-01-30T03:23:59;-24024.03;;;0.52;100.00
66627;BME280;53498;50.422;14.912;2024-01-30T03:26:25;-24021.09;;;0.42;100.00
66627;BME280;53498;50.422;14.912;2024-01-30T03:28:50;-24021.72;;;0.44;100.00
66627;BME280;53498;50.422;14.912;2024-01-30T03:31:16;-24021.72;;;0.44;100.00
66627;BME280;53498;50.422;14.912;2024-01-30T03:33:42;-24024.19;;;0.53;100.00
66627;BME280;53498;50.422;14.912;2024-01-30T03:36:08;-24023.72;;;0.51;100.00
66627;BME280;53498;50.422;14.912;2024-01-30T03:38:34;-24022.94;;;0.49;100.00
66627;BME280;53498;50.422;14.912;2024-01-30T03:41:00;-24019.69;;;0.38;100.00
66627;BME280;53498;50.422;14.912;2024-01-30T03:43:25;-24022.47;;;0.47;100.00
66627;BME280;53498;50.422;14.912;2024-01-30T03:45:51;-24022.47;;;0.47;100.00
66627;BME280;53498;50.422;14.912;2024-01-30T03:48:17;-24024.50;;;0.54;100.00
66627;BME280;53498;50.422;14.912;2024-01-30T03:50:42;-24022.00;;;0.45;100.00
66627;BME280;53498;50.422;14.912;2024-01-30T03:53:08;-24022.16;;;0.46;100.00
66627;BME280;53498;50.422;14.912;2024-01-30T03:55:33;-24020.16;;;0.39;100.00
66627;BME280;53498;50.422;14.912;2024-01-30T03:57:59;-24021.38;;;0.43;100.00
66627;BME280;53498;50.422;14.912;2024-01-30T04:00:24;-24017.97;;;0.32;100.00
66627;BME280;53498;50.422;14.912;2024-01-30T04:02:50;-24018.44;;;0.34;100.00
66627;BME280;53498;50.422;14.912;2024-01-30T04:05:16;-24019.69;;;0.38;100.00
66627;BME280;53498;50.422;14.912;2024-01-30T04:07:42;-24019.53;;;0.37;100.00
66627;BME280;53498;50.422;14.912;2024-01-30T04:10:09;-24020.16;;;0.39;100.00
66627;BME280;53498;50.422;14.912;2024-01-30T04:12:35;-24020.94;;;0.42;100.00
66627;BME280;53498;50.422;14.912;2024-01-30T04:15:01;-24023.09;;;0.49;100.00
66627;BME280;53498;50.422;14.912;2024-01-30T04:17:27;-24020.63;;;0.41;100.00
66627;BME280;53498;50.422;14.912;2024-01-30T04:19:54;-24018.44;;;0.34;100.00
66627;BME280;53498;50.422;14.912;2024-01-30T04:22:20;-24019.69;;;0.38;100.00
66627;BME280;53498;50.422;14.912;2024-01-30T04:24:46;-24023.09;;;0.49;100.00
66627;BME280;53498;50.422;14.912;2024-01-30T04:27:12;-24019.38;;;0.37;100.00
66627;BME280;53498;50.422;14.912;2024-01-30T04:29:37;-24020.31;;;0.40;100.00
66627;BME280;53498;50.422;14.912;2024-01-30T04:32:03;-24023.25;;;0.50;100.00
66627;BME280;53498;50.422;14.912;2024-01-30T04:34:29;-24018.13;;;0.33;100.00
66627;BME280;53498;50.422;14.912;2024-01-30T04:36:54;-24022.78;;;0.48;100.00
66627;BME280;53498;50.422;14.912;2024-01-30T04:39:20;-24024.19;;;0.53;100.00
66627;BME280;53498;50.422;14.912;2024-01-30T04:41:46;-24016.88;;;0.29;100.00
66627;BME280;53498;50.422;14.912;2024-01-30T04:44:11;-24016.72;;;0.28;100.00
66627;BME280;53498;50.422;14.912;2024-01-30T04:46:37;-24014.09;;;0.19;100.00
66627;BME280;53498;50.422;14.912;2024-01-30T04:49:02;-24014.09;;;0.19;100.00
66627;BME280;53498;50.422;14.912;2024-01-30T04:51:29;-24018.13;;;0.33;100.00
66627;BME280;53498;50.422;14.912;2024-01-30T04:53:55;-24017.81;;;0.32;100.00
66627;BME280;53498;50.422;14.912;2024-01-30T04:56:20;-24021.09;;;0.42;100.00
66627;BME280;53498;50.422;14.912;2024-01-30T04:58:46;-24023.09;;;0.49;100.00
66627;BME280;53498;50.422;14.912;2024-01-30T05:01:16;-24016.41;;;0.27;100.00
66627;BME280;53498;50.422;14.912;2024-01-30T05:03:41;-24017.19;;;0.30;100.00
66627;BME280;53498;50.422;14.912;2024-01-30T05:06:07;-24017.81;;;0.32;100.00
66627;BME280;53498;50.422;14.912;2024-01-30T05:08:32;-24020.31;;;0.40;100.00
66627;BME280;53498;50.422;14.912;2024-01-30T05:11:02;-24020.78;;;0.41;100.00
66627;BME280;53498;50.422;14.912;2024-01-30T05:13:30;-24016.88;;;0.29;100.00
66627;BME280;53498;50.422;14.912;2024-01-30T05:15:56;-24018.28;;;0.33;100.00
66627;BME280;53498;50.422;14.912;2024-01-30T05:18:22;-24017.50;;;0.31;100.00
66627;BME280;53498;50.422;14.912;2024-01-30T05:20:47;-24019.84;;;0.38;100.00
66627;BME280;53498;50.422;14.912;2024-01-30T05:23:13;-24019.22;;;0.36;100.00
66627;BME280;53498;50.422;14.912;2024-01-30T05:25:38;-24019.38;;;0.37;100.00
66627;BME280;53498;50.422;14.912;2024-01-30T05:28:04;-24019.06;;;0.36;100.00
66627;BME280;53498;50.422;14.912;2024-01-30T05:30:30;-24023.25;;;0.50;100.00
66627;BME280;53498;50.422;14.912;2024-01-30T05:32:55;-24019.84;;;0.38;100.00
66627;BME280;53498;50.422;14.912;2024-01-30T05:35:21;-24022.63;;;0.48;100.00
66627;BME280;53498;50.422;14.912;2024-01-30T05:37:48;-24017.50;;;0.31;100.00
66627;BME280;53498;50.422;14.912;2024-01-30T05:40:14;-24014.72;;;0.21;100.00
66627;BME280;53498;50.422;14.912;2024-01-30T05:42:40;-24015.63;;;0.25;100.00
66627;BME280;53498;50.422;14.912;2024-01-30T05:45:06;-24016.41;;;0.27;100.00
66627;BME280;53498;50.422;14.912;2024-01-30T05:47:31;-24016.09;;;0.26;100.00
66627;BME280;53498;50.422;14.912;2024-01-30T05:49:57;-24013.94;;;0.19;100.00
66627;BME280;53498;50.422;14.912;2024-01-30T05:52:22;-24015.47;;;0.24;100.00
66627;BME280;53498;50.422;14.912;2024-01-30T05:54:48;-24018.59;;;0.34;100.00
66627;BME280;53498;50.422;14.912;2024-01-30T05:57:14;-24017.03;;;0.29;100.00
66627;BME280;53498;50.422;14.912;2024-01-30T05:59:39;-24017.50;;;0.31;100.00
66627;BME280;53498;50.422;14.912;2024-01-30T06:02:08;-24014.09;;;0.19;100.00
66627;BME280;53498;50.422;14.912;2024-01-30T06:04:34;-24013.31;;;0.17;100.00
66627;BME280;53498;50.422;14.912;2024-01-30T06:06:59;-24014.88;;;0.22;100.00
66627;BME280;53498;50.422;14.912;2024-01-30T06:09:27;-24016.25;;;0.27;100.00
66627;BME280;53498;50.422;14.912;2024-01-30T06:11:54;-24016.09;;;0.26;100.00
66627;BME280;53498;50.422;14.912;2024-01-30T06:14:19;-24016.72;;;0.28;100.00
66627;BME280;53498;50.422;14.912;2024-01-30T06:16:45;-24014.88;;;0.22;100.00
66627;BME280;53498;50.422;14.912;2024-01-30T06:19:10;-24015.63;;;0.25;100.00
66627;BME280;53498;50.422;14.912;2024-01-30T06:21:36;-24015.03;;;0.22;100.00
66627;BME280;53498;50.422;14.912;2024-01-30T06:24:04;-24016.56;;;0.28;100.00
66627;BME280;53498;50.422;14.912;2024-01-30T06:26:29;-24017.19;;;0.30;100.00
66627;BME280;53498;50.422;14.912;2024-01-30T06:28:55;-24014.09;;;0.19;100.00
66627;BME280;53498;50.422;14.912;2024-01-30T06:31:20;-24014.41;;;0.20;100.00
66627;BME280;53498;50.422;14.912;2024-01-30T06:33:47;-24015.97;;;0.26;100.00
66627;BME280;53498;50.422;14.912;2024-01-30T06:36:12;-24015.78;;;0.25;100.00
66627;BME280;53498;50.422;14.912;2024-01-30T06:38:39;-24018.44;;;0.34;100.00
66627;BME280;53498;50.422;14.912;2024-01-30T06:41:04;-24015.63;;;0.25;100.00
66627;BME280;53498;50.422;14.912;2024-01-30T06:43:30;-24014.41;;;0.20;100.00
66627;BME280;53498;50.422;14.912;2024-01-30T06:45:55;-24020.31;;;0.40;100.00
66627;BME280;53498;50.422;14.912;2024-01-30T06:48:21;-24020.63;;;0.41;100.00
66627;BME280;53498;50.422;14.912;2024-01-30T06:50:46;-24017.34;;;0.30;100.00
66627;BME280;53498;50.422;14.912;2024-01-30T06:53:13;-24018.91;;;0.35;100.00
66627;BME280;53498;50.422;14.912;2024-01-30T06:55:38;-24017.03;;;0.29;100.00
66627;BME280;53498;50.422;14.912;2024-01-30T06:58:04;-24016.56;;;0.28;100.00
66627;BME280;53498;50.422;14.912;2024-01-30T07:00:30;-24017.66;;;0.31;100.00
66627;BME280;53498;50.422;14.912;2024-01-30T07:02:56;-24017.97;;;0.32;100.00
66627;BME280;53498;50.422;14.912;2024-01-30T07:05:21;-24018.44;;;0.34;100.00
66627;BME280;53498;50.422;14.912;2024-01-30T07:07:50;-24022.78;;;0.48;100.00
66627;BME280;53498;50.422;14.912;2024-01-30T07:10:16;-24021.84;;;0.45;100.00
66627;BME280;53498;50.422;14.912;2024-01-30T07:12:41;-24023.09;;;0.49;100.00
66627;BME280;53498;50.422;14.912;2024-01-30T07:15:07;-24022.16;;;0.46;100.00
66627;BME280;53498;50.422;14.912;2024-01-30T07:17:35;-24018.44;;;0.34;100.00
66627;BME280;53498;50.422;14.912;2024-01-30T07:20:01;-24018.13;;;0.33;100.00
66627;BME280;53498;50.422;14.912;2024-01-30T07:22:29;-24020.63;;;0.41;100.00
66627;BME280;53498;50.422;14.912;2024-01-30T07:24:55;-24024.34;;;0.53;100.00
66627;BME280;53498;50.422;14.912;2024-01-30T07:27:21;-24026.69;;;0.61;100.00
66627;BME280;53498;50.422;14.912;2024-01-30T07:29:47;-24028.53;;;0.67;100.00
66627;BME280;53498;50.422;14.912;2024-01-30T07:32:12;-24031.34;;;0.76;100.00
66627;BME280;53498;50.422;14.912;2024-01-30T07:34:38;-24035.84;;;0.91;100.00
66627;BME280;53498;50.422;14.912;2024-01-30T07:37:04;-24034.91;;;0.88;100.00
66627;BME280;53498;50.422;14.912;2024-01-30T07:39:29;-24034.28;;;0.86;100.00
66627;BME280;53498;50.422;14.912;2024-01-30T07:41:55;-24035.84;;;0.91;100.00
66627;BME280;53498;50.422;14.912;2024-01-30T07:44:20;-24036.47;;;0.93;100.00
66627;BME280;53498;50.422;14.912;2024-01-30T07:46:46;-24040.34;;;1.06;100.00
66627;BME280;53498;50.422;14.912;2024-01-30T07:49:11;-24037.72;;;0.97;100.00
66627;BME280;53498;50.422;14.912;2024-01-30T07:51:46;-24036.78;;;0.94;100.00
66627;BME280;53498;50.422;14.912;2024-01-30T07:54:12;-24038.03;;;0.98;100.00
66627;BME280;53498;50.422;14.912;2024-01-30T07:56:38;-24038.34;;;0.99;100.00
66627;BME280;53498;50.422;14.912;2024-01-30T07:59:03;-24043.47;;;1.16;100.00
66627;BME280;53498;50.422;14.912;2024-01-30T08:01:29;-24038.94;;;1.01;100.00
66627;BME280;53498;50.422;14.912;2024-01-30T08:03:55;-24043.63;;;1.17;100.00
66627;BME280;53498;50.422;14.912;2024-01-30T08:06:20;-24039.41;;;1.03;100.00
66627;BME280;53498;50.422;14.912;2024-01-30T08:08:46;-24040.50;;;1.06;100.00
66627;BME280;53498;50.422;14.912;2024-01-30T08:11:12;-24038.63;;;1.00;100.00
66627;BME280;53498;50.422;14.912;2024-01-30T08:13:37;-24036.47;;;0.93;100.00
66627;BME280;53498;50.422;14.912;2024-01-30T08:16:03;-24038.03;;;0.98;100.00
66627;BME280;53498;50.422;14.912;2024-01-30T08:18:29;-24041.28;;;1.09;100.00
66627;BME280;53498;50.422;14.912;2024-01-30T08:20:55;-24045.78;;;1.24;100.00
66627;BME280;53498;50.422;14.912;2024-01-30T08:23:20;-24046.41;;;1.26;100.00
66627;BME280;53498;50.422;14.912;2024-01-30T08:25:46;-24049.22;;;1.35;100.00
66627;BME280;53498;50.422;14.912;2024-01-30T08:28:12;-24051.84;;;1.44;100.00
66627;BME280;53498;50.422;14.912;2024-01-30T08:30:37;-24052.63;;;1.46;100.00
66627;BME280;53498;50.422;14.912;2024-01-30T08:33:04;-24050.75;;;1.40;100.00
66627;BME280;53498;50.422;14.912;2024-01-30T08:35:30;-24051.69;;;1.43;100.00
66627;BME280;53498;50.422;14.912;2024-01-30T08:37:59;-24056.34;;;1.58;100.00
66627;BME280;53498;50.422;14.912;2024-01-30T08:40:25;-24055.56;;;1.56;100.00
66627;BME280;53498;50.422;14.912;2024-01-30T08:42:50;-24057.44;;;1.62;100.00
66627;BME280;53498;50.422;14.912;2024-01-30T08:45:16;-24062.72;;;1.79;100.00
66627;BME280;53498;50.422;14.912;2024-01-30T08:47:41;-24064.88;;;1.87;100.00
66627;BME280;53498;50.422;14.912;2024-01-30T08:50:07;-24069.69;;;2.02;100.00
66627;BME280;53498;50.422;14.912;2024-01-30T08:52:33;-24069.38;;;2.01;100.00
66627;BME280;53498;50.422;14.912;2024-01-30T08:55:00;-24071.56;;;2.08;100.00
66627;BME280;53498;50.422;14.912;2024-01-30T08:57:25;-24072.03;;;2.10;100.00
66627;BME280;53498;50.422;14.912;2024-01-30T08:59:54;-24069.53;;;2.02;100.00
66627;BME280;53498;50.422;14.912;2024-01-30T09:02:20;-24071.09;;;2.07;100.00
66627;BME280;53498;50.422;14.912;2024-01-30T09:04:46;-24065.97;;;1.90;100.00
66627;BME280;53498;50.422;14.912;2024-01-30T09:07:11;-24067.84;;;1.96;100.00
66627;BME280;53498;50.422;14.912;2024-01-30T09:09:39;-24069.38;;;2.01;100.00
66627;BME280;53498;50.422;14.912;2024-01-30T09:12:06;-24073.09;;;2.14;100.00
66627;BME280;53498;50.422;14.912;2024-01-30T09:14:35;-24071.88;;;2.09;100.00
66627;BME280;53498;50.422;14.912;2024-01-30T09:17:01;-24070.31;;;2.04;100.00
66627;BME280;53498;50.422;14.912;2024-01-30T09:19:28;-24072.19;;;2.11;100.00
66627;BME280;53498;50.422;14.912;2024-01-30T09:21:54;-24074.34;;;2.18;100.00
66627;BME280;53498;50.422;14.912;2024-01-30T09:24:20;-24077.13;;;2.27;100.00
66627;BME280;53498;50.422;14.912;2024-01-30T09:26:45;-24075.44;;;2.21;100.00
66627;BME280;53498;50.422;14.912;2024-01-30T09:29:11;-24074.81;;;2.19;100.00
66627;BME280;53498;50.422;14.912;2024-01-30T09:31:36;-24068.13;;;1.97;100.00
66627;BME280;53498;50.422;14.912;2024-01-30T09:34:02;-24072.47;;;2.12;100.00
66627;BME280;53498;50.422;14.912;2024-01-30T09:36:27;-24081.31;;;2.41;100.00
66627;BME280;53498;50.422;14.912;2024-01-30T09:38:53;-24079.78;;;2.36;100.00
66627;BME280;53498;50.422;14.912;2024-01-30T09:41:19;-24081.94;;;2.43;100.00
66627;BME280;53498;50.422;14.912;2024-01-30T09:43:48;-24089.25;;;2.67;100.00
66627;BME280;53498;50.422;14.912;2024-01-30T09:46:15;-24089.53;;;2.68;100.00
66627;BME280;53498;50.422;14.912;2024-01-30T09:48:42;-24087.69;;;2.62;100.00
66627;BME280;53498;50.422;14.912;2024-01-30T09:51:09;-24087.69;;;2.62;100.00
66627;BME280;53498;50.422;14.912;2024-01-30T09:53:36;-24085.81;;;2.55;100.00
66627;BME280;53498;50.422;14.912;2024-01-30T09:56:02;-24085.81;;;2.55;100.00
66627;BME280;53498;50.422;14.912;2024-01-30T09:58:28;-24089.53;;;2.68;100.00
66627;BME280;53498;50.422;14.912;2024-01-30T10:00:53;-24094.81;;;2.85;100.00
66627;BME280;53498;50.422;14.912;2024-01-30T10:03:19;-24099.16;;;2.99;100.00
66627;BME280;53498;50.422;14.912;2024-01-30T10:05:51;-24099.47;;;3.00;100.00
66627;BME280;53498;50.422;14.912;2024-01-30T10:08:20;-24097.16;;;2.93;100.00
66627;BME280;53498;50.422;14.912;2024-01-30T10:10:49;-24097.91;;;2.95;100.00
66627;BME280;53498;50.422;14.912;2024-01-30T10:13:16;-24097.78;;;2.95;100.00
66627;BME280;53498;50.422;14.912;2024-01-30T10:15:42;-24101.50;;;3.07;100.00
66627;BME280;53498;50.422;14.912;2024-01-30T10:18:08;-24102.72;;;3.11;100.00
66627;BME280;53498;50.422;14.912;2024-01-30T10:20:35;-24096.69;;;2.91;100.00
66627;BME280;53498;50.422;14.912;2024-01-30T10:23:02;-24096.38;;;2.90;100.00
66627;BME280;53498;50.422;14.912;2024-01-30T10:25:28;-24100.09;;;3.03;100.00
66627;BME280;53498;50.422;14.912;2024-01-30T10:27:54;-24100.09;;;3.03;100.00
66627;BME280;53498;50.422;14.912;2024-01-30T10:30:22;-24104.44;;;3.17;100.00
66627;BME280;53498;50.422;14.912;2024-01-30T10:32:48;-24099.31;;;3.00;100.00
66627;BME280;53498;50.422;14.912;2024-01-30T10:35:14;-24103.97;;;3.15;100.00
66627;BME280;53498;50.422;14.912;2024-01-30T10:37:43;-24105.97;;;3.22;100.00
66627;BME280;53498;50.422;14.912;2024-01-30T10:40:09;-24110.47;;;3.37;100.00
66627;BME280;53498;50.422;14.912;2024-01-30T10:42:45;-24112.63;;;3.44;100.00
66627;BME280;53498;50.422;14.912;2024-01-30T10:45:12;-24114.03;;;3.48;100.00
66627;BME280;53498;50.422;14.912;2024-01-30T10:47:48;-24104.91;;;3.18;100.00
66627;BME280;53498;50.422;14.912;2024-01-30T10:50:15;-24101.50;;;3.07;100.00
66627;BME280;53498;50.422;14.912;2024-01-30T10:52:41;-24105.66;;;3.21;100.00
66627;BME280;53498;50.422;14.912;2024-01-30T10:55:10;-24102.56;;;3.11;100.00
66627;BME280;53498;50.422;14.912;2024-01-30T10:57:37;-24095.13;;;2.86;100.00
66627;BME280;53498;50.422;14.912;2024-01-30T11:00:14;-24097.78;;;2.95;100.00
66627;BME280;53498;50.422;14.912;2024-01-30T11:02:43;-24100.56;;;3.04;100.00
66627;BME280;53498;50.422;14.912;2024-01-30T11:05:10;-24104.91;;;3.18;100.00
66627;BME280;53498;50.422;14.912;2024-01-30T11:07:39;-24109.09;;;3.32;100.00
66627;BME280;53498;50.422;14.912;2024-01-30T11:10:05;-24113.25;;;3.46;100.00
66627;BME280;53498;50.422;14.912;2024-01-30T11:12:37;-24112.19;;;3.42;100.00
66627;BME280;53498;50.422;14.912;2024-01-30T11:15:18;-24109.69;;;3.34;98.88
66627;BME280;53498;50.422;14.912;2024-01-30T11:17:51;-24112.50;;;3.43;100.00
66627;BME280;53498;50.422;14.912;2024-01-30T11:20:22;-24114.97;;;3.52;100.00
66627;BME280;53498;50.422;14.912;2024-01-30T11:22:52;-24112.50;;;3.43;100.00
66627;BME280;53498;50.422;14.912;2024-01-30T11:25:22;-24106.59;;;3.24;100.00
66627;BME280;53498;50.422;14.912;2024-01-30T11:27:53;-24108.00;;;3.29;100.00
66627;BME280;53498;50.422;14.912;2024-01-30T11:30:39;-24110.47;;;3.37;100.00
66627;BME280;53498;50.422;14.912;2024-01-30T11:33:11;-24111.41;;;3.40;100.00
66627;BME280;53498;50.422;14.912;2024-01-30T11:35:42;-24110.78;;;3.38;100.00
66627;BME280;53498;50.422;14.912;2024-01-30T11:38:09;-24110.31;;;3.36;100.00
66627;BME280;53498;50.422;14.912;2024-01-30T11:40:36;-24105.03;;;3.19;100.00
66627;BME280;53498;50.422;14.912;2024-01-30T11:43:05;-24109.09;;;3.32;100.00
66627;BME280;53498;50.422;14.912;2024-01-30T11:45:31;-24106.13;;;3.22;100.00
66627;BME280;53498;50.422;14.912;2024-01-30T11:47:58;-24106.91;;;3.25;100.00
66627;BME280;53498;50.422;14.912;2024-01-30T11:50:32;-24097.16;;;2.93;100.00
66627;BME280;53498;50.422;14.912;2024-01-30T11:52:59;-24092.81;;;2.78;100.00
66627;BME280;53498;50.422;14.912;2024-01-30T11:55:25;-24092.03;;;2.76;100.00
66627;BME280;53498;50.422;14.912;2024-01-30T11:57:51;-24093.44;;;2.81;100.00
66627;BME280;53498;50.422;14.912;2024-01-30T12:00:19;-24093.13;;;2.80;100.00
66627;BME280;53498;50.422;14.912;2024-01-30T12:02:54;-24094.34;;;2.84;100.00
66627;BME280;53498;50.422;14.912;2024-01-30T12:05:23;-24102.25;;;3.10;100.00
66627;BME280;53498;50.422;14.912;2024-01-30T12:07:49;-24103.81;;;3.15;100.00
66627;BME280;53498;50.422;14.912;2024-01-30T12:10:15;-24100.09;;;3.03;100.00
66627;BME280;53498;50.422;14.912;2024-01-30T12:12:44;-24105.97;;;3.22;100.00
66627;BME280;53498;50.422;14.912;2024-01-30T12:15:10;-24107.69;;;3.28;100.00
66627;BME280;53498;50.422;14.912;2024-01-30T12:17:36;-24105.97;;;3.22;100.00
66627;BME280;53498;50.422;14.912;2024-01-30T12:20:41;-24108.47;;;3.30;100.00
66627;BME280;53498;50.422;14.912;2024-01-30T12:22:59;-24100.72;;;3.05;100.00
66627;BME280;53498;50.422;14.912;2024-01-30T12:25:25;-24099.47;;;3.00;100.00
66627;BME280;53498;50.422;14.912;2024-01-30T12:27:52;-24099.78;;;3.01;100.00
66627;BME280;53498;50.422;14.912;2024-01-30T12:30:19;-24103.50;;;3.14;100.00
66627;BME280;53498;50.422;14.912;2024-01-30T12:32:46;-24104.13;;;3.16;100.00
66627;BME280;53498;50.422;14.912;2024-01-30T12:35:15;-24105.19;;;3.19;100.00
66627;BME280;53498;50.422;14.912;2024-01-30T12:37:42;-24112.50;;;3.43;100.00